createdAt,value
2023-03-30T00:01:15.342Z,4.19
2023-03-30T00:03:48.603Z,4.19
2023-03-30T00:06:24.769Z,4.21
2023-03-30T00:08:57.591Z,4.16
2023-03-30T00:11:27.209Z,4.12
2023-03-30T00:13:55.873Z,4.15
2023-03-30T00:16:23.666Z,4.12
2023-03-30T00:18:51.827Z,4.08
2023-03-30T00:21:21.051Z,4.13
2023-03-30T00:23:50.934Z,4.04
2023-03-30T00:26:18.725Z,4.00
2023-03-30T00:28:47.401Z,4.05
2023-03-30T00:31:16.006Z,4.04
2023-03-30T00:33:46.947Z,4.10
2023-03-30T00:36:17.172Z,4.11
2023-03-30T00:38:46.422Z,4.17
2023-03-30T00:41:14.535Z,4.13
2023-03-30T00:43:56.461Z,4.11
2023-03-30T00:46:25.209Z,4.14
2023-03-30T00:48:57.884Z,4.10
2023-03-30T00:51:27.476Z,4.15
2023-03-30T00:54:04.768Z,4.19
2023-03-30T00:56:34.762Z,4.18
2023-03-30T00:59:04.439Z,4.20
2023-03-30T01:01:34.994Z,4.22
2023-03-30T01:04:04.470Z,4.16
2023-03-30T01:06:34.925Z,4.22
2023-03-30T01:09:04.423Z,4.20
2023-03-30T01:11:32.488Z,4.25
2023-03-30T01:14:04.045Z,4.25
2023-03-30T01:16:40.678Z,4.24
2023-03-30T01:19:39.707Z,4.24
2023-03-30T01:22:40.627Z,4.21
2023-03-30T01:25:26.857Z,4.23
2023-03-30T01:28:33.094Z,4.22
2023-03-30T01:31:42.227Z,4.17
2023-03-30T01:34:34.667Z,4.16
2023-03-30T01:37:17.997Z,4.13
2023-03-30T01:39:55.215Z,4.11
2023-03-30T01:42:42.501Z,4.26
2023-03-30T01:45:32.120Z,4.15
2023-03-30T01:48:35.906Z,4.13
2023-03-30T01:51:07.094Z,4.12
2023-03-30T01:53:42.943Z,4.14
2023-03-30T01:56:46.826Z,4.14
2023-03-30T01:59:26.432Z,4.20
2023-03-30T02:02:00.769Z,4.16
2023-03-30T02:04:32.468Z,4.11
2023-03-30T02:07:04.907Z,4.12
2023-03-30T02:09:34.747Z,4.12
2023-03-30T02:12:03.555Z,4.12
2023-03-30T02:14:33.278Z,4.10
2023-03-30T02:17:07.155Z,4.08
2023-03-30T02:19:38.119Z,4.07
2023-03-30T02:22:06.645Z,4.03
2023-03-30T02:24:35.460Z,4.07
2023-03-30T02:27:03.291Z,4.05
2023-03-30T02:29:32.722Z,4.05
2023-03-30T02:32:01.960Z,4.05
2023-03-30T02:35:01.638Z,4.04
2023-03-30T02:38:06.764Z,3.99
2023-03-30T02:41:04.931Z,3.99
2023-03-30T02:43:49.027Z,4.03
2023-03-30T02:46:27.945Z,4.00
2023-03-30T02:49:13.182Z,4.08
2023-03-30T02:52:24.004Z,4.06
2023-03-30T02:55:15.889Z,4.01
2023-03-30T02:58:21.379Z,4.05
2023-03-30T03:01:34.270Z,4.07
2023-03-30T03:04:19.059Z,4.10
2023-03-30T03:07:07.435Z,4.12
2023-03-30T03:09:36.834Z,4.12
2023-03-30T03:12:08.628Z,4.10
2023-03-30T03:14:40.276Z,4.09
2023-03-30T03:17:08.715Z,4.08
2023-03-30T03:19:43.921Z,4.15
2023-03-30T03:22:12.925Z,4.16
2023-03-30T03:24:42.267Z,4.14
2023-03-30T03:27:10.176Z,4.14
2023-03-30T03:29:54.944Z,4.20
2023-03-30T03:32:23.027Z,4.16
2023-03-30T03:34:51.676Z,4.24
2023-03-30T03:37:20.039Z,4.18
2023-03-30T03:39:48.592Z,4.27
2023-03-30T03:42:16.890Z,4.13
2023-03-30T03:45:08.379Z,4.16
2023-03-30T03:47:39.103Z,4.11
2023-03-30T03:50:10.266Z,4.07
2023-03-30T03:52:38.060Z,4.14
2023-03-30T03:55:06.280Z,4.19
2023-03-30T03:57:34.086Z,4.19
2023-03-30T04:00:04.636Z,4.20
2023-03-30T04:02:39.976Z,4.06
2023-03-30T04:05:08.607Z,4.15
2023-03-30T04:07:38.483Z,4.13
2023-03-30T04:10:08.913Z,4.09
2023-03-30T04:12:58.385Z,4.14
2023-03-30T04:15:45.433Z,4.09
2023-03-30T04:18:33.837Z,4.09
2023-03-30T04:21:31.068Z,4.06
2023-03-30T04:23:58.729Z,4.06
2023-03-30T04:26:49.186Z,4.09
2023-03-30T04:29:35.646Z,4.11
2023-03-30T04:32:58.204Z,4.06
2023-03-30T04:35:44.667Z,4.12
2023-03-30T04:38:32.918Z,4.17
2023-03-30T04:41:33.445Z,4.17
2023-03-30T04:44:21.329Z,4.23
2023-03-30T04:47:08.072Z,4.22
2023-03-30T04:49:59.117Z,4.28
2023-03-30T04:52:45.480Z,4.26
2023-03-30T04:55:29.783Z,4.33
2023-03-30T04:58:12.691Z,4.30
2023-03-30T05:00:56.331Z,4.32
2023-03-30T05:03:43.068Z,4.35
2023-03-30T05:06:27.551Z,4.43
2023-03-30T05:09:15.844Z,4.52
2023-03-30T05:12:02.319Z,4.56
2023-03-30T05:14:41.544Z,4.53
2023-03-30T05:17:28.372Z,4.60
2023-03-30T05:20:18.448Z,4.55
2023-03-30T05:23:04.984Z,4.66
2023-03-30T05:25:52.053Z,4.68
2023-03-30T05:28:38.619Z,4.69
2023-03-30T05:31:25.907Z,4.73
2023-03-30T05:34:12.124Z,4.79
2023-03-30T05:36:46.130Z,4.83
2023-03-30T05:39:41.289Z,4.76
2023-03-30T05:42:19.695Z,4.79
2023-03-30T05:45:18.921Z,4.88
2023-03-30T05:48:07.234Z,4.94
2023-03-30T05:50:50.643Z,5.04
2023-03-30T05:53:31.330Z,5.03
2023-03-30T05:56:15.533Z,5.17
2023-03-30T05:59:16.472Z,5.28
2023-03-30T06:02:03.158Z,5.29
2023-03-30T06:04:31.832Z,5.39
2023-03-30T06:07:01.661Z,5.45
2023-03-30T06:09:29.431Z,5.47
2023-03-30T06:12:00.758Z,5.51
2023-03-30T06:14:31.300Z,5.54
2023-03-30T06:17:23.582Z,5.60
2023-03-30T06:19:52.117Z,5.46
2023-03-30T06:22:21.777Z,5.58
2023-03-30T06:25:13.986Z,5.61
2023-03-30T06:27:44.773Z,5.61
2023-03-30T06:30:14.076Z,5.72
2023-03-30T06:32:43.911Z,5.74
2023-03-30T06:35:22.176Z,5.75
2023-03-30T06:37:52.142Z,5.86
2023-03-30T06:40:21.571Z,5.98
2023-03-30T06:42:53.024Z,5.98
2023-03-30T06:45:39.393Z,5.96
2023-03-30T06:48:07.793Z,6.02
2023-03-30T06:50:41.114Z,6.08
2023-03-30T06:53:35.626Z,6.19
2023-03-30T06:56:04.883Z,6.19
2023-03-30T06:58:37.304Z,6.26
2023-03-30T07:01:14.035Z,6.26
2023-03-30T07:04:11.779Z,6.45
2023-03-30T07:07:02.371Z,6.59
2023-03-30T07:09:30.191Z,6.69
2023-03-30T07:11:59.621Z,6.76
2023-03-30T07:14:27.471Z,6.77
2023-03-30T07:16:57.432Z,6.66
2023-03-30T07:19:26.433Z,6.72
2023-03-30T07:21:54.449Z,6.60
2023-03-30T07:24:25.730Z,6.65
2023-03-30T07:26:54.493Z,6.57
2023-03-30T07:29:22.956Z,6.67
2023-03-30T07:31:57.088Z,6.64
2023-03-30T07:34:25.485Z,6.78
2023-03-30T07:36:57.816Z,6.87
2023-03-30T07:39:30.984Z,6.92
2023-03-30T07:42:00.220Z,6.91
2023-03-30T07:44:29.718Z,6.96
2023-03-30T07:47:07.082Z,7.01
2023-03-30T07:49:37.145Z,6.97
2023-03-30T07:52:07.493Z,6.99
2023-03-30T07:54:48.464Z,6.99
2023-03-30T07:57:24.062Z,7.09
2023-03-30T07:59:52.236Z,7.05
2023-03-30T08:02:39.791Z,6.97
2023-03-30T08:05:13.026Z,7.06
2023-03-30T08:07:50.623Z,7.04
2023-03-30T08:10:24.835Z,6.97
2023-03-30T08:12:54.048Z,6.90
2023-03-30T08:15:23.381Z,7.08
2023-03-30T08:17:51.589Z,7.20
2023-03-30T08:20:19.642Z,7.18
2023-03-30T08:22:48.482Z,7.35
2023-03-30T08:25:16.671Z,7.33
2023-03-30T08:27:45.000Z,7.45
2023-03-30T08:30:16.309Z,7.43
2023-03-30T08:32:45.981Z,7.47
2023-03-30T08:35:13.895Z,7.52
2023-03-30T08:37:42.321Z,7.51
2023-03-30T08:40:13.157Z,7.58
2023-03-30T08:43:00.203Z,7.57
2023-03-30T08:45:35.812Z,7.53
2023-03-30T08:48:04.720Z,7.51
2023-03-30T08:50:35.994Z,7.42
2023-03-30T08:53:05.680Z,7.40
2023-03-30T08:55:34.324Z,7.53
2023-03-30T08:58:12.088Z,7.51
2023-03-30T09:00:58.962Z,7.65
2023-03-30T09:03:32.845Z,7.71
2023-03-30T09:06:14.458Z,7.75
2023-03-30T09:08:42.889Z,7.76
2023-03-30T09:11:13.794Z,7.83
2023-03-30T09:13:45.586Z,7.90
2023-03-30T09:16:21.885Z,7.91
2023-03-30T09:18:55.560Z,7.88
2023-03-30T09:21:28.055Z,7.97
2023-03-30T09:23:58.881Z,8.00
2023-03-30T09:26:52.010Z,8.08
2023-03-30T09:29:24.857Z,8.08
2023-03-30T09:32:06.090Z,8.09
2023-03-30T09:35:16.489Z,8.11
2023-03-30T09:37:44.906Z,8.18
2023-03-30T09:40:35.152Z,8.18
2023-03-30T09:43:35.849Z,8.12
2023-03-30T09:46:07.089Z,8.13
2023-03-30T09:48:49.043Z,8.00
2023-03-30T09:51:23.805Z,8.07
2023-03-30T09:53:59.491Z,8.20
2023-03-30T09:56:30.037Z,8.25
2023-03-30T09:58:57.984Z,8.36
2023-03-30T10:01:38.345Z,8.48
2023-03-30T10:04:11.849Z,8.60
2023-03-30T10:06:48.799Z,8.75
2023-03-30T10:09:18.839Z,8.80
2023-03-30T10:11:52.345Z,8.83
2023-03-30T10:14:36.944Z,9.27
2023-03-30T10:17:05.621Z,9.57
2023-03-30T10:19:38.037Z,9.88
2023-03-30T10:22:17.441Z,10.11
2023-03-30T10:24:55.276Z,10.23
2023-03-30T10:27:28.726Z,10.48
2023-03-30T10:29:56.720Z,10.66
2023-03-30T10:32:29.608Z,10.87
2023-03-30T10:35:00.398Z,10.83
2023-03-30T10:37:35.359Z,10.99
2023-03-30T10:40:18.086Z,10.88
2023-03-30T10:42:47.510Z,10.81
2023-03-30T10:45:20.481Z,10.93
2023-03-30T10:48:00.382Z,10.84
2023-03-30T10:50:50.573Z,10.88
2023-03-30T10:53:29.988Z,10.87
2023-03-30T10:56:07.487Z,11.10
2023-03-30T10:59:13.176Z,11.38
2023-03-30T11:02:18.420Z,11.46
2023-03-30T11:04:54.772Z,11.40
2023-03-30T11:07:58.113Z,11.38
2023-03-30T11:10:38.574Z,11.51
2023-03-30T11:13:07.189Z,11.50
2023-03-30T11:15:50.645Z,11.61
2023-03-30T11:18:22.436Z,11.74
2023-03-30T11:21:13.775Z,11.80
2023-03-30T11:24:00.451Z,11.87
2023-03-30T11:26:39.246Z,11.71
2023-03-30T11:29:18.325Z,11.75
2023-03-30T11:32:10.144Z,11.94
2023-03-30T11:35:03.187Z,12.05
2023-03-30T11:37:55.439Z,12.09
2023-03-30T11:40:29.702Z,12.11
2023-03-30T11:42:58.386Z,11.94
2023-03-30T11:45:42.898Z,12.08
2023-03-30T11:48:29.432Z,12.07
2023-03-30T11:51:19.241Z,12.13
2023-03-30T11:54:31.046Z,12.14
2023-03-30T11:57:17.588Z,12.23
2023-03-30T12:00:10.297Z,12.28
2023-03-30T12:02:52.182Z,12.26
2023-03-30T12:05:39.558Z,12.06
2023-03-30T12:08:07.018Z,12.08
2023-03-30T12:10:41.193Z,12.32
2023-03-30T12:13:14.641Z,12.63
2023-03-30T12:15:56.421Z,12.84
2023-03-30T12:18:39.692Z,13.18
2023-03-30T12:21:21.105Z,13.37
2023-03-30T12:24:03.944Z,13.59
2023-03-30T12:26:34.396Z,13.78
2023-03-30T12:29:52.645Z,13.66
2023-03-30T12:32:03.734Z,13.75
2023-03-30T12:34:36.890Z,13.78
2023-03-30T12:37:38.659Z,13.74
2023-03-30T12:40:22.908Z,13.21
2023-03-30T12:43:24.756Z,13.12
2023-03-30T12:46:06.446Z,13.12
2023-03-30T12:48:53.095Z,12.99
2023-03-30T12:51:52.224Z,12.88
2023-03-30T12:54:57.306Z,12.91
2023-03-30T12:57:39.687Z,12.75
2023-03-30T13:00:22.220Z,12.48
2023-03-30T13:02:50.882Z,12.47
2023-03-30T13:05:26.298Z,12.47
2023-03-30T13:07:56.385Z,12.51
2023-03-30T13:10:30.372Z,12.47
2023-03-30T13:13:00.002Z,12.40
2023-03-30T13:15:41.528Z,12.31
2023-03-30T13:18:09.361Z,12.35
2023-03-30T13:20:57.600Z,12.35
2023-03-30T13:23:28.334Z,12.28
2023-03-30T13:26:34.352Z,12.26
2023-03-30T13:29:17.740Z,12.22
2023-03-30T13:32:13.381Z,12.18
2023-03-30T13:35:05.555Z,12.21
2023-03-30T13:37:47.477Z,12.23
2023-03-30T13:40:30.808Z,12.24
2023-03-30T13:43:07.754Z,12.29
2023-03-30T13:46:15.732Z,12.32
2023-03-30T13:49:06.659Z,12.33
2023-03-30T13:51:37.283Z,12.32
2023-03-30T13:54:14.344Z,12.40
2023-03-30T13:56:47.414Z,12.47
2023-03-30T13:59:21.250Z,12.57
2023-03-30T14:02:01.502Z,12.65
2023-03-30T14:04:35.057Z,12.76
2023-03-30T14:07:14.435Z,12.91
2023-03-30T14:09:44.033Z,13.02
2023-03-30T14:12:14.099Z,13.01
2023-03-30T14:14:47.524Z,13.01
2023-03-30T14:17:19.790Z,12.95
2023-03-30T14:20:09.534Z,12.95
2023-03-30T14:22:41.174Z,13.02
2023-03-30T14:25:30.374Z,12.97
2023-03-30T14:28:03.555Z,13.04
2023-03-30T14:30:32.147Z,13.11
2023-03-30T14:33:08.842Z,13.05
2023-03-30T14:35:47.451Z,13.02
2023-03-30T14:38:38.702Z,12.99
2023-03-30T14:41:28.041Z,12.92
2023-03-30T14:43:57.455Z,12.80
2023-03-30T14:46:38.627Z,12.63
2023-03-30T14:49:08.824Z,12.49
2023-03-30T14:51:42.277Z,12.39
2023-03-30T14:54:16.787Z,12.28
2023-03-30T14:56:47.432Z,12.25
2023-03-30T14:59:19.275Z,12.24
2023-03-30T15:01:48.374Z,12.21
2023-03-30T15:04:17.532Z,12.07
2023-03-30T15:06:47.451Z,12.04
2023-03-30T15:09:17.916Z,11.97
2023-03-30T15:11:51.103Z,11.82
2023-03-30T15:14:22.933Z,11.66
2023-03-30T15:16:54.198Z,11.62
2023-03-30T15:19:26.835Z,11.61
2023-03-30T15:21:59.844Z,11.56
2023-03-30T15:24:33.128Z,11.45
2023-03-30T15:27:04.504Z,11.43
2023-03-30T15:29:32.916Z,11.27
2023-03-30T15:32:07.817Z,11.22
2023-03-30T15:34:35.998Z,11.20
2023-03-30T15:37:04.643Z,11.27
2023-03-30T15:39:36.963Z,11.23
2023-03-30T15:42:07.728Z,11.21
2023-03-30T15:44:38.222Z,11.21
2023-03-30T15:47:17.769Z,11.17
2023-03-30T15:49:51.148Z,11.16
2023-03-30T15:52:42.758Z,11.15
2023-03-30T15:55:25.069Z,11.08
2023-03-30T15:57:53.518Z,11.10
2023-03-30T16:00:24.194Z,11.06
2023-03-30T16:03:01.763Z,11.09
2023-03-30T16:05:32.596Z,11.10
2023-03-30T16:08:01.001Z,11.08
2023-03-30T16:10:31.088Z,10.96
2023-03-30T16:13:01.292Z,11.00
2023-03-30T16:15:32.043Z,10.96
2023-03-30T16:18:00.826Z,11.05
2023-03-30T16:20:33.076Z,10.96
2023-03-30T16:23:01.800Z,10.98
2023-03-30T16:25:38.284Z,10.98
2023-03-30T16:28:17.794Z,10.96
2023-03-30T16:30:48.655Z,10.95
2023-03-30T16:33:17.019Z,10.94
2023-03-30T16:35:45.102Z,10.94
2023-03-30T16:38:20.724Z,10.92
2023-03-30T16:40:51.922Z,10.95
2023-03-30T16:43:20.937Z,10.89
2023-03-30T16:45:48.594Z,10.88
2023-03-30T16:48:17.755Z,10.93
2023-03-30T16:50:47.616Z,10.93
2023-03-30T16:53:15.998Z,10.85
2023-03-30T16:55:43.843Z,10.86
2023-03-30T16:58:16.635Z,10.87
2023-03-30T17:00:50.196Z,10.92
2023-03-30T17:03:19.499Z,10.86
2023-03-30T17:05:51.681Z,10.84
2023-03-30T17:08:23.829Z,10.83
2023-03-30T17:10:53.575Z,10.77
2023-03-30T17:13:22.290Z,10.78
2023-03-30T17:15:50.227Z,10.75
2023-03-30T17:18:21.741Z,10.70
2023-03-30T17:20:52.158Z,10.70
2023-03-30T17:23:27.575Z,10.67
2023-03-30T17:25:59.217Z,10.63
2023-03-30T17:28:33.037Z,10.63
2023-03-30T17:31:02.469Z,10.62
2023-03-30T17:33:32.055Z,10.60
2023-03-30T17:36:08.540Z,10.62
2023-03-30T17:38:37.141Z,10.62
2023-03-30T17:41:07.005Z,10.60
2023-03-30T17:43:35.568Z,10.68
2023-03-30T17:46:03.439Z,10.62
2023-03-30T17:48:34.281Z,10.63
2023-03-30T17:51:02.177Z,10.58
2023-03-30T17:53:30.657Z,10.61
2023-03-30T17:55:58.733Z,10.55
2023-03-30T17:58:33.201Z,10.60
2023-03-30T18:01:04.125Z,10.65
2023-03-30T18:03:32.932Z,10.62
2023-03-30T18:06:01.835Z,10.55
2023-03-30T18:08:30.691Z,10.61
2023-03-30T18:11:00.143Z,10.60
2023-03-30T18:13:29.721Z,10.66
2023-03-30T18:16:18.973Z,10.58
2023-03-30T18:18:48.373Z,10.57
2023-03-30T18:21:16.643Z,10.55
2023-03-30T18:23:44.861Z,10.48
2023-03-30T18:26:13.780Z,10.52
2023-03-30T18:28:44.535Z,10.48
2023-03-30T18:31:12.842Z,10.46
2023-03-30T18:33:46.925Z,10.42
2023-03-30T18:36:15.283Z,10.46
2023-03-30T18:38:43.649Z,10.47
2023-03-30T18:41:14.255Z,10.40
2023-03-30T18:43:42.847Z,10.44
2023-03-30T18:46:13.592Z,10.39
2023-03-30T18:48:42.087Z,10.35
2023-03-30T18:51:12.603Z,10.52
2023-03-30T18:53:40.946Z,10.45
2023-03-30T18:56:12.024Z,10.43
2023-03-30T18:58:42.953Z,10.16
2023-03-30T19:01:13.537Z,10.34
2023-03-30T19:03:43.141Z,10.31
2023-03-30T19:06:20.007Z,10.26
2023-03-30T19:08:48.423Z,10.13
2023-03-30T19:11:19.973Z,10.09
2023-03-30T19:13:48.485Z,10.09
2023-03-30T19:16:20.285Z,10.13
2023-03-30T19:18:49.812Z,10.04
2023-03-30T19:21:18.508Z,10.04
2023-03-30T19:23:47.259Z,9.89
2023-03-30T19:26:15.561Z,9.92
2023-03-30T19:28:44.265Z,9.89
2023-03-30T19:31:17.037Z,9.93
2023-03-30T19:33:45.042Z,9.88
2023-03-30T19:36:13.199Z,9.85
2023-03-30T19:38:44.255Z,9.84
2023-03-30T19:41:12.426Z,9.86
2023-03-30T19:43:40.878Z,9.86
2023-03-30T19:46:09.043Z,9.83
2023-03-30T19:48:37.854Z,9.83
2023-03-30T19:51:06.654Z,9.80
2023-03-30T19:53:35.915Z,9.79
2023-03-30T19:56:04.255Z,9.85
2023-03-30T19:58:33.267Z,9.75
2023-03-30T20:01:04.531Z,9.75
2023-03-30T20:03:33.120Z,9.75
2023-03-30T20:06:01.894Z,9.73
2023-03-30T20:08:30.594Z,9.69
2023-03-30T20:10:59.402Z,9.65
2023-03-30T20:13:28.426Z,9.67
2023-03-30T20:15:56.433Z,9.61
2023-03-30T20:18:25.182Z,9.66
2023-03-30T20:20:53.264Z,9.59
2023-03-30T20:23:21.742Z,9.51
2023-03-30T20:25:50.765Z,9.57
2023-03-30T20:28:18.818Z,9.58
2023-03-30T20:30:46.482Z,9.47
2023-03-30T20:33:14.959Z,9.52
2023-03-30T20:35:43.359Z,9.45
2023-03-30T20:38:11.875Z,9.41
2023-03-30T20:40:39.797Z,9.43
2023-03-30T20:43:10.490Z,9.43
2023-03-30T20:45:48.210Z,9.35
2023-03-30T20:48:26.693Z,9.31
2023-03-30T20:50:55.990Z,9.28
2023-03-30T20:53:25.511Z,9.30
2023-03-30T20:55:53.135Z,9.29
2023-03-30T20:58:22.759Z,9.29
2023-03-30T21:00:58.418Z,9.26
2023-03-30T21:03:29.934Z,9.24
2023-03-30T21:06:02.684Z,9.26
2023-03-30T21:08:34.316Z,9.19
2023-03-30T21:11:03.061Z,9.21
2023-03-30T21:13:31.529Z,9.19
2023-03-30T21:16:01.035Z,9.20
2023-03-30T21:18:29.338Z,9.26
2023-03-30T21:20:57.789Z,9.19
2023-03-30T21:23:26.981Z,9.16
2023-03-30T21:25:58.422Z,9.21
2023-03-30T21:28:28.891Z,9.17
2023-03-30T21:30:57.822Z,9.12
2023-03-30T21:33:28.374Z,9.22
2023-03-30T21:35:58.315Z,9.22
2023-03-30T21:38:27.880Z,9.23
2023-03-30T21:41:10.067Z,9.26
2023-03-30T21:43:46.240Z,9.27
2023-03-30T21:46:19.718Z,9.29
2023-03-30T21:48:50.489Z,9.31
2023-03-30T21:51:21.963Z,9.34
2023-03-30T21:53:51.689Z,9.29
2023-03-30T21:56:22.627Z,9.28
2023-03-30T21:58:51.396Z,9.27
2023-03-30T22:01:21.194Z,9.29
2023-03-30T22:03:49.056Z,9.27
2023-03-30T22:06:17.523Z,9.34
2023-03-30T22:08:46.620Z,9.37
2023-03-30T22:11:18.376Z,9.35
2023-03-30T22:13:48.456Z,9.37
2023-03-30T22:16:19.592Z,9.38
2023-03-30T22:18:48.958Z,9.38
2023-03-30T22:21:18.760Z,9.37
2023-03-30T22:23:47.222Z,9.37
2023-03-30T22:26:16.227Z,9.42
2023-03-30T22:28:44.612Z,9.36
2023-03-30T22:31:14.346Z,9.46
2023-03-30T22:33:42.314Z,9.42
2023-03-30T22:36:25.240Z,9.37
2023-03-30T22:38:53.015Z,9.41
2023-03-30T22:41:24.287Z,9.39
2023-03-30T22:43:54.373Z,9.40
2023-03-30T22:46:23.083Z,9.38
2023-03-30T22:48:52.623Z,9.38
2023-03-30T22:51:26.756Z,9.36
2023-03-30T22:53:58.058Z,9.36
2023-03-30T22:56:27.546Z,9.41
2023-03-30T22:58:56.240Z,9.47
2023-03-30T23:01:24.623Z,9.45
2023-03-30T23:03:53.628Z,9.49
2023-03-30T23:06:21.831Z,9.46
2023-03-30T23:08:49.895Z,9.47
2023-03-30T23:11:21.586Z,9.46
2023-03-30T23:13:50.172Z,9.44
2023-03-30T23:16:18.579Z,9.41
2023-03-30T23:18:47.156Z,9.40
2023-03-30T23:21:14.955Z,9.41
2023-03-30T23:23:42.945Z,9.38
2023-03-30T23:26:11.568Z,9.42
2023-03-30T23:28:41.859Z,9.43
2023-03-30T23:31:15.645Z,9.32
2023-03-30T23:33:44.766Z,9.37
2023-03-30T23:36:19.572Z,9.39
2023-03-30T23:38:48.149Z,9.37
2023-03-30T23:41:18.149Z,9.29
2023-03-30T23:43:46.665Z,9.23
2023-03-30T23:46:16.273Z,9.32
2023-03-30T23:48:44.739Z,9.28
2023-03-30T23:51:12.748Z,9.30
2023-03-30T23:53:41.831Z,9.33
2023-03-30T23:56:13.388Z,9.28
2023-03-30T23:58:41.472Z,9.30
